X  Chiuso Dati meteorologici dell'aviazione (METAR)        LYNI Nis Airport
Temperatura
27°C Temperatura
9°C Punto di rugiada
32% Umidità



Vento
4 KM/O
2 MPH
1 M/S
2 KTS



-1°
VRB
Condizioni attuali

Mostly Sunny Per lo piu' sereno
Pressione 1020 (hPa) - 30.12 (inHg)
Visibilità 6 (miglio) - 10 (km)
Aeroporto
Codice-Aeroporto LYNI

Posizione: Nis Airport
Distanza: 63 (km)

Metar:
METAR LYNI 141400Z VRB02KT CAVOK 27/09 Q1021 NOSIG

Ore: 14-04-2024 16:00 CEST